createdAt,value
2018-04-09T00:01:44.939Z,43.40
2018-04-09T00:04:12.508Z,43.40
2018-04-09T00:06:40.051Z,43.10
2018-04-09T00:09:07.675Z,42.30
2018-04-09T00:11:35.210Z,42.30
2018-04-09T00:14:02.769Z,42.30
2018-04-09T00:16:30.299Z,41.70
2018-04-09T00:18:57.882Z,41.70
2018-04-09T00:21:25.450Z,41.60
2018-04-09T00:23:53.800Z,41.00
2018-04-09T00:26:21.374Z,41.00
2018-04-09T00:28:48.923Z,40.90
2018-04-09T00:31:16.493Z,39.90
2018-04-09T00:33:44.026Z,39.80
2018-04-09T00:36:11.608Z,40.60
2018-04-09T00:38:39.135Z,39.60
2018-04-09T00:41:06.712Z,39.40
2018-04-09T00:43:34.234Z,38.70
2018-04-09T00:46:02.004Z,38.70
2018-04-09T00:48:29.523Z,38.60
2018-04-09T00:50:57.078Z,38.20
2018-04-09T00:53:36.528Z,37.80
2018-04-09T00:56:04.092Z,37.60
2018-04-09T00:58:32.394Z,37.60
2018-04-09T01:00:59.960Z,37.60
2018-04-09T01:03:27.484Z,37.40
2018-04-09T01:05:55.035Z,36.70
2018-04-09T01:08:22.567Z,36.90
2018-04-09T01:10:50.122Z,36.50
2018-04-09T01:13:17.694Z,36.00
2018-04-09T01:15:45.250Z,36.30
2018-04-09T01:18:12.831Z,35.90
2018-04-09T01:20:40.373Z,35.50
2018-04-09T01:23:07.922Z,35.40
2018-04-09T01:25:35.452Z,35.20
2018-04-09T01:28:03.034Z,35.80
2018-04-09T01:30:30.610Z,34.90
2018-04-09T01:32:58.197Z,35.20
2018-04-09T01:35:26.496Z,35.10
2018-04-09T01:37:54.065Z,34.80
2018-04-09T01:40:21.610Z,34.80
2018-04-09T01:42:49.945Z,35.10
2018-04-09T01:45:17.482Z,35.10
2018-04-09T01:47:45.070Z,34.70
2018-04-09T01:50:12.605Z,35.00
2018-04-09T01:52:40.170Z,34.30
2018-04-09T01:55:08.459Z,33.90
2018-04-09T01:57:36.013Z,33.90
2018-04-09T02:00:03.556Z,34.00
2018-04-09T02:02:31.126Z,34.00
2018-04-09T02:04:58.672Z,33.90
2018-04-09T02:07:26.217Z,34.30
2018-04-09T02:09:53.722Z,34.70
2018-04-09T02:12:21.262Z,34.80
2018-04-09T02:14:48.820Z,34.60
2018-04-09T02:17:16.332Z,34.60
2018-04-09T02:19:44.640Z,34.40
2018-04-09T02:22:12.180Z,34.40
2018-04-09T02:24:39.730Z,34.80
2018-04-09T02:27:08.035Z,34.40
2018-04-09T02:29:35.628Z,34.40
2018-04-09T02:32:03.151Z,34.70
2018-04-09T02:34:30.729Z,34.60
2018-04-09T02:36:58.246Z,34.90
2018-04-09T02:39:26.597Z,35.00
2018-04-09T02:41:54.205Z,35.00
2018-04-09T02:44:21.806Z,35.00
2018-04-09T02:46:49.334Z,34.90
2018-04-09T02:49:16.859Z,34.90
2018-04-09T02:51:44.490Z,34.40
2018-04-09T02:54:12.024Z,35.30
2018-04-09T02:56:39.584Z,34.80
2018-04-09T02:59:07.127Z,34.40
2018-04-09T03:01:34.726Z,34.90
2018-04-09T03:04:02.251Z,35.30
2018-04-09T03:06:29.818Z,34.70
2018-04-09T03:08:58.120Z,34.70
2018-04-09T03:11:25.680Z,34.60
2018-04-09T03:13:53.201Z,34.90
2018-04-09T03:16:20.740Z,35.70
2018-04-09T03:18:48.241Z,34.90
2018-04-09T03:21:15.810Z,35.10
2018-04-09T03:23:43.352Z,35.00
2018-04-09T03:26:10.928Z,34.90
2018-04-09T03:28:38.446Z,35.00
2018-04-09T03:31:06.288Z,35.40
2018-04-09T03:33:33.863Z,35.60
2018-04-09T03:36:02.134Z,35.20
2018-04-09T03:38:30.460Z,35.30
2018-04-09T03:40:58.000Z,35.10
2018-04-09T03:43:25.564Z,35.60
2018-04-09T03:45:53.092Z,36.10
2018-04-09T03:48:20.642Z,35.60
2018-04-09T03:50:48.953Z,35.60
2018-04-09T03:53:16.508Z,35.60
2018-04-09T03:55:44.057Z,36.00
2018-04-09T03:58:11.741Z,36.10
2018-04-09T04:00:39.191Z,36.00
2018-04-09T04:03:06.775Z,36.50
2018-04-09T04:05:34.327Z,36.60
2018-04-09T04:08:01.888Z,36.20
2018-04-09T04:10:29.420Z,36.40
2018-04-09T04:12:56.984Z,36.50
2018-04-09T04:15:36.324Z,36.90
2018-04-09T04:18:15.604Z,37.00
2018-04-09T04:20:54.859Z,37.20
2018-04-09T04:23:22.448Z,37.50
2018-04-09T04:25:49.986Z,37.60
2018-04-09T04:28:18.268Z,36.60
2018-04-09T04:30:46.602Z,36.50
2018-04-09T04:33:14.118Z,36.50
2018-04-09T04:35:41.682Z,36.80
2018-04-09T04:38:09.208Z,36.70
2018-04-09T04:40:36.764Z,36.30
2018-04-09T04:43:05.074Z,36.90
2018-04-09T04:45:32.660Z,36.90
2018-04-09T04:48:00.232Z,36.30
2018-04-09T04:50:28.625Z,37.10
2018-04-09T04:52:56.272Z,37.10
2018-04-09T04:55:23.836Z,37.30
2018-04-09T04:57:51.362Z,37.40
2018-04-09T05:00:18.931Z,37.10
2018-04-09T05:02:46.438Z,37.60
2018-04-09T05:05:13.990Z,37.50
2018-04-09T05:07:41.539Z,37.10
2018-04-09T05:10:09.075Z,37.50
2018-04-09T05:12:36.584Z,38.10
2018-04-09T05:15:04.901Z,38.10
2018-04-09T05:17:32.428Z,38.10
2018-04-09T05:20:00.003Z,37.70
2018-04-09T05:22:27.534Z,38.10
2018-04-09T05:24:55.069Z,38.40
2018-04-09T05:27:22.619Z,37.90
2018-04-09T05:29:50.135Z,38.00
2018-04-09T05:32:17.704Z,38.10
2018-04-09T05:34:45.222Z,38.50
2018-04-09T05:37:12.813Z,37.50
2018-04-09T05:39:40.328Z,38.00
2018-04-09T05:42:07.889Z,38.50
2018-04-09T05:44:35.415Z,39.10
2018-04-09T05:47:03.025Z,38.70
2018-04-09T05:49:30.502Z,39.10
2018-04-09T05:51:58.817Z,38.30
2018-04-09T05:54:26.350Z,38.30
2018-04-09T05:56:53.932Z,41.10
2018-04-09T05:59:21.487Z,42.40
2018-04-09T06:01:49.058Z,44.80
2018-04-09T06:04:16.628Z,45.60
2018-04-09T06:06:44.174Z,46.10
2018-04-09T06:09:11.742Z,46.80
2018-04-09T06:11:39.280Z,47.20
2018-04-09T06:14:06.860Z,47.30
2018-04-09T06:16:34.374Z,47.80
2018-04-09T06:19:02.703Z,47.70
2018-04-09T06:21:30.231Z,47.60
2018-04-09T06:23:58.091Z,47.50
2018-04-09T06:26:25.654Z,47.50
2018-04-09T06:28:53.235Z,47.40
2018-04-09T06:31:20.774Z,47.60
2018-04-09T06:33:48.314Z,47.90
2018-04-09T06:36:15.830Z,48.60
2018-04-09T06:38:43.374Z,49.00
2018-04-09T06:41:10.908Z,49.30
2018-04-09T06:43:38.469Z,45.30
2018-04-09T06:46:06.015Z,43.90
2018-04-09T06:48:33.573Z,43.20
2018-04-09T06:51:01.864Z,44.00
2018-04-09T06:53:29.434Z,44.00
2018-04-09T06:55:56.995Z,42.00
2018-04-09T06:58:24.549Z,42.60
2018-04-09T07:00:52.102Z,41.90
2018-04-09T07:03:19.634Z,42.90
2018-04-09T07:05:47.183Z,42.50
2018-04-09T07:08:14.725Z,41.50
2018-04-09T07:10:42.312Z,41.70
2018-04-09T07:13:09.856Z,40.60
2018-04-09T07:15:37.445Z,39.70
2018-04-09T07:18:05.742Z,38.90
2018-04-09T07:20:33.299Z,38.90
2018-04-09T07:23:00.821Z,40.50
2018-04-09T07:25:29.216Z,41.00
2018-04-09T07:27:56.769Z,41.00
2018-04-09T07:30:25.096Z,41.40
2018-04-09T07:32:52.602Z,41.40
2018-04-09T07:35:20.180Z,43.00
2018-04-09T07:37:48.466Z,44.70
2018-04-09T07:40:16.017Z,44.60
2018-04-09T07:42:43.539Z,45.70
2018-04-09T07:45:11.091Z,45.70
2018-04-09T07:47:38.607Z,45.00
2018-04-09T07:50:06.720Z,45.00
2018-04-09T07:52:34.241Z,44.30
2018-04-09T07:55:01.767Z,44.60
2018-04-09T07:57:29.334Z,44.60
2018-04-09T07:59:57.641Z,44.90
2018-04-09T08:02:25.214Z,44.90
2018-04-09T08:04:52.768Z,42.30
2018-04-09T08:07:20.355Z,40.30
2018-04-09T08:09:47.896Z,39.10
2018-04-09T08:12:15.459Z,39.00
2018-04-09T08:14:43.004Z,39.10
2018-04-09T08:17:11.175Z,38.40
2018-04-09T08:19:38.729Z,38.40
2018-04-09T08:22:06.279Z,38.10
2018-04-09T08:24:33.802Z,37.40
2018-04-09T08:27:01.381Z,38.20
2018-04-09T08:29:28.910Z,39.10
2018-04-09T08:31:56.471Z,37.80
2018-04-09T08:34:23.986Z,36.80
2018-04-09T08:36:51.564Z,36.40
2018-04-09T08:39:19.847Z,36.90
2018-04-09T08:41:47.570Z,36.90
2018-04-09T08:44:15.080Z,36.60
2018-04-09T08:46:42.618Z,36.80
2018-04-09T08:49:10.175Z,35.70
2018-04-09T08:51:37.725Z,36.70
2018-04-09T08:54:05.285Z,36.90
2018-04-09T08:56:32.808Z,35.80
2018-04-09T08:59:00.358Z,35.40
2018-04-09T09:01:27.872Z,35.00
2018-04-09T09:03:55.442Z,35.70
2018-04-09T09:06:22.987Z,36.70
2018-04-09T09:08:50.549Z,35.10
2018-04-09T09:11:18.055Z,35.40
2018-04-09T09:13:45.602Z,36.70
2018-04-09T09:16:13.122Z,34.50
2018-04-09T09:18:40.667Z,34.40
2018-04-09T09:21:08.201Z,33.80
2018-04-09T09:23:35.750Z,33.70
2018-04-09T09:26:03.274Z,34.50
2018-04-09T09:28:30.828Z,34.40
2018-04-09T09:30:59.128Z,33.50
2018-04-09T09:33:26.677Z,33.40
2018-04-09T09:35:54.195Z,34.60
2018-04-09T09:38:22.473Z,35.60
2018-04-09T09:40:50.007Z,35.50
2018-04-09T09:43:17.550Z,35.50
2018-04-09T09:45:45.131Z,35.60
2018-04-09T09:48:12.636Z,34.60
2018-04-09T09:50:40.197Z,34.90
2018-04-09T09:53:07.701Z,34.60
2018-04-09T09:55:35.258Z,32.80
2018-04-09T09:58:03.041Z,32.70
2018-04-09T10:00:36.157Z,32.30
2018-04-09T10:03:04.281Z,32.90
2018-04-09T10:05:31.874Z,32.80
2018-04-09T10:07:59.412Z,32.10
2018-04-09T10:10:26.987Z,32.10
2018-04-09T10:12:55.277Z,31.30
2018-04-09T10:15:22.847Z,31.20
2018-04-09T10:17:50.362Z,32.00
2018-04-09T10:20:17.912Z,31.50
2018-04-09T10:22:45.436Z,32.10
2018-04-09T10:25:13.202Z,30.90
2018-04-09T10:27:40.726Z,31.70
2018-04-09T10:30:08.234Z,31.60
2018-04-09T10:32:35.798Z,29.70
2018-04-09T10:35:03.307Z,28.90
2018-04-09T10:37:30.846Z,28.30
2018-04-09T10:39:58.357Z,30.50
2018-04-09T10:42:25.904Z,30.00
2018-04-09T10:44:53.429Z,29.90
2018-04-09T10:47:21.737Z,28.70
2018-04-09T10:49:49.237Z,28.60
2018-04-09T10:52:16.787Z,28.10
2018-04-09T10:54:44.292Z,29.00
2018-04-09T10:57:12.306Z,27.90
2018-04-09T10:59:39.816Z,28.50
2018-04-09T11:02:08.137Z,28.80
2018-04-09T11:04:35.640Z,28.80
2018-04-09T11:07:03.147Z,28.30
2018-04-09T11:09:30.688Z,29.00
2018-04-09T11:11:58.196Z,29.30
2018-04-09T11:14:26.336Z,28.40
2018-04-09T11:16:53.841Z,28.80
2018-04-09T11:19:21.377Z,29.00
2018-04-09T11:21:48.886Z,29.00
2018-04-09T11:24:16.441Z,28.60
2018-04-09T11:26:43.965Z,29.50
2018-04-09T11:29:11.520Z,27.30
2018-04-09T11:31:39.055Z,26.80
2018-04-09T11:34:06.616Z,26.70
2018-04-09T11:36:34.168Z,28.00
2018-04-09T11:39:01.724Z,28.60
2018-04-09T11:41:29.228Z,27.80
2018-04-09T11:43:56.756Z,26.70
2018-04-09T11:46:24.275Z,27.70
2018-04-09T11:48:52.612Z,27.60
2018-04-09T11:51:20.127Z,27.50
2018-04-09T11:53:47.631Z,26.30
2018-04-09T11:56:15.202Z,26.70
2018-04-09T11:58:42.724Z,26.00
2018-04-09T12:01:10.263Z,26.70
2018-04-09T12:03:37.758Z,25.90
2018-04-09T12:06:05.322Z,26.50
2018-04-09T12:08:32.814Z,27.20
2018-04-09T12:11:00.363Z,27.00
2018-04-09T12:13:27.892Z,26.60
2018-04-09T12:15:55.477Z,26.60
2018-04-09T12:18:23.023Z,26.40
2018-04-09T12:20:50.658Z,27.40
2018-04-09T12:23:18.225Z,26.30
2018-04-09T12:25:45.861Z,26.70
2018-04-09T12:28:13.400Z,26.80
2018-04-09T12:30:41.768Z,28.60
2018-04-09T12:33:09.333Z,28.60
2018-04-09T12:35:37.653Z,26.70
2018-04-09T12:38:05.218Z,26.60
2018-04-09T12:40:32.788Z,26.20
2018-04-09T12:43:00.398Z,26.10
2018-04-09T12:45:28.756Z,26.40
2018-04-09T12:47:56.340Z,26.40
2018-04-09T12:50:23.905Z,28.50
2018-04-09T12:52:52.267Z,27.60
2018-04-09T12:55:19.853Z,27.60
2018-04-09T12:57:47.428Z,28.00
2018-04-09T13:00:14.959Z,26.70
2018-04-09T13:02:42.610Z,26.50
2018-04-09T13:05:10.142Z,25.50
2018-04-09T13:07:37.751Z,25.60
2018-04-09T13:10:05.369Z,26.60
2018-04-09T13:12:32.953Z,25.10
2018-04-09T13:15:01.279Z,27.00
2018-04-09T13:17:28.937Z,26.90
2018-04-09T13:19:56.458Z,25.20
2018-04-09T13:22:24.001Z,26.20
2018-04-09T13:24:51.565Z,25.60
2018-04-09T13:27:19.928Z,25.10
2018-04-09T13:29:47.504Z,25.00
2018-04-09T13:32:15.172Z,26.30
2018-04-09T13:34:42.759Z,24.60
2018-04-09T13:37:11.007Z,24.60
2018-04-09T13:39:41.517Z,26.10
2018-04-09T13:42:09.107Z,26.10
2018-04-09T13:44:36.697Z,25.20
2018-04-09T13:47:04.265Z,24.50
2018-04-09T13:49:31.957Z,24.80
2018-04-09T13:51:59.511Z,24.20
2018-04-09T13:54:27.088Z,25.10
2018-04-09T13:56:54.635Z,23.80
2018-04-09T13:59:22.232Z,24.00
2018-04-09T14:01:49.799Z,23.50
2018-04-09T14:04:17.451Z,24.70
2018-04-09T14:06:44.989Z,23.70
2018-04-09T14:09:12.615Z,24.40
2018-04-09T14:11:40.132Z,23.60
2018-04-09T14:14:07.726Z,23.70
2018-04-09T14:16:35.312Z,23.80
2018-04-09T14:19:03.620Z,24.90
2018-04-09T14:21:31.275Z,23.70
2018-04-09T14:23:58.903Z,24.30
2018-04-09T14:26:26.546Z,25.10
2018-04-09T14:28:54.091Z,25.20
2018-04-09T14:31:22.464Z,25.00
2018-04-09T14:33:50.024Z,24.90
2018-04-09T14:36:17.581Z,24.40
2018-04-09T14:38:45.599Z,24.70
2018-04-09T14:41:13.200Z,24.70
2018-04-09T14:43:40.744Z,24.80
2018-04-09T14:46:08.336Z,25.50
2018-04-09T14:48:35.932Z,27.90
2018-04-09T14:51:03.468Z,26.00
2018-04-09T14:53:31.065Z,26.60
2018-04-09T14:55:58.600Z,26.90
2018-04-09T14:58:26.172Z,26.80
2018-04-09T15:00:53.773Z,27.10
2018-04-09T15:03:21.349Z,27.30
2018-04-09T15:05:48.925Z,28.40
2018-04-09T15:08:16.532Z,27.60
2018-04-09T15:10:44.103Z,27.70
2018-04-09T15:13:11.671Z,28.70
2018-04-09T15:15:39.977Z,29.30
2018-04-09T15:18:07.643Z,29.30
2018-04-09T15:20:35.213Z,29.40
2018-04-09T15:23:03.671Z,28.50
2018-04-09T15:25:31.220Z,28.20
2018-04-09T15:27:59.580Z,28.40
2018-04-09T15:30:27.173Z,28.30
2018-04-09T15:32:55.116Z,28.30
2018-04-09T15:35:22.668Z,28.20
2018-04-09T15:37:50.977Z,28.70
2018-04-09T15:40:18.747Z,28.60
2018-04-09T15:42:46.311Z,28.50
2018-04-09T15:45:13.913Z,28.80
2018-04-09T15:47:41.503Z,29.30
2018-04-09T15:50:09.081Z,28.50
2018-04-09T15:52:36.627Z,28.40
2018-04-09T15:55:04.262Z,29.00
2018-04-09T15:57:31.853Z,29.10
2018-04-09T16:00:00.194Z,29.10
2018-04-09T16:02:27.747Z,29.10
2018-04-09T16:04:55.332Z,29.00
2018-04-09T16:10:19.296Z,29.90
2018-04-09T16:12:47.622Z,29.90
2018-04-09T16:15:15.253Z,29.90
2018-04-09T16:17:54.519Z,29.90
2018-04-09T16:20:22.888Z,29.60
2018-04-09T16:22:51.175Z,29.90
2018-04-09T16:25:18.735Z,29.90
2018-04-09T16:27:47.025Z,30.90
2018-04-09T16:30:14.650Z,30.90
2018-04-09T16:32:42.193Z,31.10
2018-04-09T16:35:09.767Z,30.70
2018-04-09T16:37:37.287Z,31.00
2018-04-09T16:40:04.845Z,31.70
2018-04-09T16:42:32.398Z,31.70
2018-04-09T16:44:59.910Z,31.60
2018-04-09T16:47:27.477Z,31.70
2018-04-09T16:49:55.777Z,32.20
2018-04-09T16:52:23.322Z,32.10
2018-04-09T16:54:51.601Z,32.90
2018-04-09T16:57:19.167Z,32.80
2018-04-09T16:59:46.674Z,33.20
2018-04-09T17:02:14.500Z,33.20
2018-04-09T17:04:42.020Z,33.20
2018-04-09T17:07:09.569Z,33.30
2018-04-09T17:09:37.099Z,33.50
2018-04-09T17:12:06.332Z,33.70
2018-04-09T17:14:33.877Z,34.40
2018-04-09T17:17:01.413Z,34.30
2018-04-09T17:19:28.933Z,35.00
2018-04-09T17:21:57.216Z,34.80
2018-04-09T17:24:25.540Z,35.50
2018-04-09T17:26:54.593Z,35.40
2018-04-09T17:29:22.905Z,35.90
2018-04-09T17:31:50.419Z,35.80
2018-04-09T17:34:18.742Z,36.80
2018-04-09T17:36:46.254Z,36.70
2018-04-09T17:39:14.583Z,37.30
2018-04-09T17:41:42.110Z,37.30
2018-04-09T17:44:09.681Z,37.40
2018-04-09T17:46:37.193Z,37.80
2018-04-09T17:49:04.755Z,38.10
2018-04-09T17:51:32.267Z,38.80
2018-04-09T17:53:59.811Z,39.30
2018-04-09T17:56:27.324Z,39.10
2018-04-09T17:58:54.873Z,39.00
2018-04-09T18:01:22.407Z,39.30
2018-04-09T18:03:49.998Z,39.30
2018-04-09T18:06:17.511Z,39.90
2018-04-09T18:08:45.619Z,39.80
2018-04-09T18:11:13.127Z,39.70
2018-04-09T18:13:41.447Z,39.70
2018-04-09T18:16:08.961Z,39.60
2018-04-09T18:18:36.485Z,39.90
2018-04-09T18:21:04.028Z,40.10
2018-04-09T18:23:31.547Z,40.30
2018-04-09T18:25:59.094Z,40.40
2018-04-09T18:28:27.390Z,40.70
2018-04-09T18:30:54.947Z,40.60
2018-04-09T18:33:22.467Z,40.90
2018-04-09T18:35:50.046Z,41.00
2018-04-09T18:38:17.565Z,41.40
2018-04-09T18:40:45.126Z,41.20
2018-04-09T18:43:12.647Z,41.60
2018-04-09T18:45:40.184Z,42.10
2018-04-09T18:48:08.452Z,42.50
2018-04-09T18:50:37.126Z,42.50
2018-04-09T18:53:04.644Z,42.40
2018-04-09T18:55:32.190Z,42.40
2018-04-09T18:57:59.708Z,42.80
2018-04-09T19:00:27.321Z,43.20
2018-04-09T19:02:54.993Z,43.70
2018-04-09T19:05:23.454Z,44.30
2018-04-09T19:07:51.080Z,44.30
2018-04-09T19:10:18.765Z,45.10
2018-04-09T19:12:46.510Z,44.90
2018-04-09T19:15:14.920Z,45.10
2018-04-09T19:17:42.689Z,45.10
2018-04-09T19:20:10.512Z,45.60
2018-04-09T19:22:39.015Z,45.40
2018-04-09T19:25:06.776Z,45.30
2018-04-09T19:27:34.494Z,45.80
2018-04-09T19:30:02.115Z,45.80
2018-04-09T19:32:30.012Z,45.80
2018-04-09T19:35:03.460Z,46.10
2018-04-09T19:37:36.703Z,46.30
2018-04-09T19:40:23.071Z,46.60
2018-04-09T19:48:33.217Z,46.50
2018-04-09T19:51:00.779Z,46.40
2018-04-09T19:53:28.472Z,46.10
2018-04-09T19:55:56.337Z,46.10
2018-04-09T19:58:24.165Z,46.00
2018-04-09T20:00:52.029Z,45.50
2018-04-09T20:03:20.034Z,45.50
2018-04-09T20:05:48.641Z,45.20
2018-04-09T20:08:16.423Z,45.20
2018-04-09T20:10:44.217Z,44.80
2018-04-09T20:13:12.147Z,45.10
2018-04-09T20:15:40.132Z,44.90
2018-04-09T20:18:08.037Z,45.20
2018-04-09T20:20:35.949Z,45.30
2018-04-09T20:23:03.907Z,45.00
2018-04-09T20:25:31.612Z,44.80
2018-04-09T20:27:59.435Z,44.70
2018-04-09T20:30:27.966Z,44.30
2018-04-09T20:32:55.714Z,44.30
2018-04-09T20:35:23.593Z,44.00
2018-04-09T20:37:51.383Z,43.90
2018-04-09T20:40:19.219Z,43.60
2018-04-09T20:42:46.928Z,43.70
2018-04-09T20:45:14.775Z,43.60
2018-04-09T20:47:42.590Z,43.30
2018-04-09T20:50:11.150Z,43.70
2018-04-09T20:52:39.607Z,43.70
2018-04-09T20:55:07.327Z,43.70
2018-04-09T20:57:35.034Z,44.00
2018-04-09T21:00:02.875Z,43.90
2018-04-09T21:02:30.448Z,44.20
2018-04-09T21:04:58.173Z,44.30
2018-04-09T21:07:25.811Z,44.90
2018-04-09T21:09:54.435Z,45.10
2018-04-09T21:12:22.431Z,45.00
2018-04-09T21:14:50.232Z,45.20
2018-04-09T21:17:19.589Z,45.50
2018-04-09T21:19:47.480Z,45.40
2018-04-09T21:22:15.302Z,46.00
2018-04-09T21:24:43.883Z,46.20
2018-04-09T21:27:11.905Z,46.10
2018-04-09T21:29:40.576Z,46.50
2018-04-09T21:32:08.427Z,46.40
2018-04-09T21:34:36.086Z,46.60
2018-04-09T21:37:03.836Z,46.60
2018-04-09T21:39:31.711Z,46.90
2018-04-09T21:41:59.483Z,47.20
2018-04-09T21:44:28.291Z,46.70
2018-04-09T21:46:56.175Z,47.20
2018-04-09T21:49:23.932Z,47.30
2018-04-09T21:51:52.400Z,47.30
2018-04-09T21:54:20.066Z,47.20
2018-04-09T21:56:48.056Z,47.10
2018-04-09T21:59:15.741Z,47.20
2018-04-09T22:01:43.472Z,47.60
2018-04-09T22:04:11.293Z,47.40
2018-04-09T22:06:39.105Z,47.60
2018-04-09T22:09:07.813Z,47.80
2018-04-09T22:11:35.723Z,47.80
2018-04-09T22:14:03.526Z,48.20
2018-04-09T22:16:31.979Z,48.10
2018-04-09T22:18:59.668Z,48.10
2018-04-09T22:21:28.354Z,48.80
2018-04-09T22:23:56.214Z,48.80
2018-04-09T22:26:23.968Z,48.60
2018-04-09T22:28:52.692Z,48.80
2018-04-09T22:31:20.554Z,48.70
2018-04-09T22:33:48.728Z,49.30
2018-04-09T22:36:16.565Z,49.50
2018-04-09T22:38:44.457Z,49.70
2018-04-09T22:41:12.374Z,49.90
2018-04-09T22:43:40.745Z,50.00
2018-04-09T22:46:08.681Z,50.00
2018-04-09T22:48:36.496Z,50.00
2018-04-09T22:51:04.314Z,50.00
2018-04-09T22:53:32.097Z,50.40
2018-04-09T22:56:00.047Z,50.80
2018-04-09T22:58:27.754Z,50.80
2018-04-09T23:00:55.675Z,50.80
2018-04-09T23:03:23.412Z,51.10
2018-04-09T23:05:51.284Z,51.10
2018-04-09T23:08:19.082Z,51.50
2018-04-09T23:10:47.011Z,51.80
2018-04-09T23:13:14.643Z,52.00
2018-04-09T23:15:42.635Z,52.20
2018-04-09T23:18:10.300Z,52.40
2018-04-09T23:20:38.046Z,52.80
2018-04-09T23:23:05.815Z,53.80
2018-04-09T23:25:33.636Z,53.90
2018-04-09T23:28:01.442Z,54.20
2018-04-09T23:30:29.104Z,54.40
2018-04-09T23:32:56.777Z,54.40
2018-04-09T23:35:24.367Z,54.60
2018-04-09T23:37:52.796Z,54.60
2018-04-09T23:40:20.626Z,54.60
2018-04-09T23:42:48.445Z,55.20
2018-04-09T23:45:16.162Z,55.40
2018-04-09T23:47:44.604Z,55.90
2018-04-09T23:50:12.178Z,55.80
2018-04-09T23:52:40.716Z,56.50
2018-04-09T23:55:08.439Z,56.50
2018-04-09T23:57:36.108Z,56.70
